createdAt,value
2023-04-17T00:00:20.758Z,23.10
2023-04-17T00:01:20.779Z,23.13
2023-04-17T00:02:20.872Z,23.14
2023-04-17T00:03:20.915Z,23.16
2023-04-17T00:04:20.923Z,23.17
2023-04-17T00:05:20.934Z,23.17
2023-04-17T00:06:20.810Z,23.18
2023-04-17T00:07:20.871Z,23.18
2023-04-17T00:08:20.795Z,23.18
2023-04-17T00:09:20.791Z,23.19
2023-04-17T00:10:20.803Z,23.19
2023-04-17T00:11:20.796Z,23.19
2023-04-17T00:12:20.799Z,23.19
2023-04-17T00:13:20.837Z,23.20
2023-04-17T00:14:20.811Z,23.20
2023-04-17T00:15:20.797Z,23.20
2023-04-17T00:16:20.809Z,23.19
2023-04-17T00:17:20.786Z,23.20
2023-04-17T00:18:20.769Z,23.20
2023-04-17T00:19:20.775Z,23.20
2023-04-17T00:20:20.753Z,23.19
2023-04-17T00:21:20.746Z,23.19
2023-04-17T00:22:20.752Z,23.19
2023-04-17T00:23:20.728Z,23.19
2023-04-17T00:24:20.714Z,23.19
2023-04-17T00:25:20.713Z,23.19
2023-04-17T00:26:20.698Z,23.19
2023-04-17T00:27:20.682Z,23.20
2023-04-17T00:28:20.679Z,23.19
2023-04-17T00:29:20.692Z,23.19
2023-04-17T00:30:20.651Z,23.19
2023-04-17T00:31:20.732Z,23.19
2023-04-17T00:32:20.628Z,23.19
2023-04-17T00:33:20.629Z,23.19
2023-04-17T00:34:20.649Z,23.19
2023-04-17T00:35:20.683Z,23.19
2023-04-17T00:36:20.631Z,23.19
2023-04-17T00:37:20.618Z,23.19
2023-04-17T00:38:20.596Z,23.19
2023-04-17T00:39:20.587Z,23.19
2023-04-17T00:40:20.561Z,23.19
2023-04-17T00:41:20.546Z,23.19
2023-04-17T00:42:20.592Z,23.20
2023-04-17T00:43:20.522Z,23.19
2023-04-17T00:44:20.520Z,23.19
2023-04-17T00:45:20.552Z,23.19
2023-04-17T00:46:20.573Z,23.19
2023-04-17T00:47:20.536Z,23.19
2023-04-17T00:48:20.512Z,23.19
2023-04-17T00:49:20.528Z,23.19
2023-04-17T00:50:20.508Z,23.19
2023-04-17T00:51:20.520Z,23.18
2023-04-17T00:52:20.520Z,23.19
2023-04-17T00:53:20.510Z,23.18
2023-04-17T00:54:20.525Z,23.18
2023-04-17T00:55:20.523Z,23.19
2023-04-17T00:56:20.502Z,23.18
2023-04-17T00:57:20.508Z,23.19
2023-04-17T00:58:20.521Z,23.18
2023-04-17T00:59:20.513Z,23.18
2023-04-17T01:00:20.518Z,23.18
2023-04-17T01:01:20.582Z,23.18
2023-04-17T01:02:20.601Z,23.18
2023-04-17T01:03:20.711Z,23.17
2023-04-17T01:04:20.686Z,23.17
2023-04-17T01:05:20.553Z,23.17
2023-04-17T01:06:20.511Z,23.17
2023-04-17T01:07:20.519Z,23.18
2023-04-17T01:08:20.873Z,23.17
2023-04-17T01:09:20.535Z,23.18
2023-04-17T01:10:20.523Z,23.17
2023-04-17T01:11:20.512Z,23.18
2023-04-17T01:12:20.508Z,23.17
2023-04-17T01:13:20.515Z,23.17
2023-04-17T01:14:20.519Z,23.17
2023-04-17T01:15:20.520Z,23.16
2023-04-17T01:16:20.567Z,23.16
2023-04-17T01:17:20.617Z,23.16
2023-04-17T01:18:20.108Z,23.16
2023-04-17T01:19:20.132Z,23.16
2023-04-17T01:20:20.083Z,23.16
2023-04-17T01:21:20.073Z,23.17
2023-04-17T01:22:20.073Z,23.17
2023-04-17T01:23:20.068Z,23.17
2023-04-17T01:24:20.057Z,23.16
2023-04-17T01:25:20.041Z,23.16
2023-04-17T01:26:20.019Z,23.16
2023-04-17T01:27:20.006Z,23.17
2023-04-17T01:28:19.998Z,23.16
2023-04-17T01:29:19.982Z,23.17
2023-04-17T01:30:19.977Z,23.16
2023-04-17T01:31:20.025Z,23.17
2023-04-17T01:32:20.051Z,23.16
2023-04-17T01:33:19.996Z,23.17
2023-04-17T01:34:19.942Z,23.17
2023-04-17T01:35:19.939Z,23.17
2023-04-17T01:36:19.943Z,23.17
2023-04-17T01:37:19.904Z,23.16
2023-04-17T01:38:19.944Z,23.17
2023-04-17T01:39:19.896Z,23.17
2023-04-17T01:40:19.887Z,23.17
2023-04-17T01:41:19.900Z,23.17
2023-04-17T01:42:19.907Z,23.17
2023-04-17T01:43:19.910Z,23.17
2023-04-17T01:44:19.869Z,23.17
2023-04-17T01:45:19.863Z,23.17
2023-04-17T01:46:19.877Z,23.17
2023-04-17T01:47:19.853Z,23.16
2023-04-17T01:48:19.875Z,23.17
2023-04-17T01:49:19.864Z,23.17
2023-04-17T01:50:19.803Z,23.17
2023-04-17T01:51:19.797Z,23.16
2023-04-17T01:52:19.789Z,23.16
2023-04-17T01:53:19.772Z,23.16
2023-04-17T01:54:19.790Z,23.16
2023-04-17T01:55:19.806Z,23.16
2023-04-17T01:56:19.744Z,23.15
2023-04-17T01:57:19.751Z,23.15
2023-04-17T01:58:19.738Z,23.15
2023-04-17T01:59:19.735Z,23.15
2023-04-17T02:00:19.709Z,23.15
2023-04-17T02:01:19.750Z,23.14
2023-04-17T02:02:19.796Z,23.14
2023-04-17T02:03:19.800Z,23.14
2023-04-17T02:04:19.764Z,23.13
2023-04-17T02:05:19.657Z,23.13
2023-04-17T02:06:19.615Z,23.14
2023-04-17T02:07:19.627Z,23.14
2023-04-17T02:08:19.584Z,23.14
2023-04-17T02:09:19.569Z,23.14
2023-04-17T02:10:19.542Z,23.14
2023-04-17T02:11:19.528Z,23.15
2023-04-17T02:12:19.517Z,23.15
2023-04-17T02:13:19.492Z,23.15
2023-04-17T02:14:19.513Z,23.15
2023-04-17T02:15:19.468Z,23.16
2023-04-17T02:16:19.464Z,23.15
2023-04-17T02:17:19.474Z,23.15
2023-04-17T02:18:19.414Z,23.14
2023-04-17T02:19:19.398Z,23.14
2023-04-17T02:20:20.553Z,23.14
2023-04-17T02:21:19.404Z,23.14
2023-04-17T02:22:19.389Z,23.15
2023-04-17T02:23:19.352Z,23.15
2023-04-17T02:24:19.341Z,23.15
2023-04-17T02:25:19.325Z,23.15
2023-04-17T02:26:19.328Z,23.15
2023-04-17T02:27:19.297Z,23.15
2023-04-17T02:28:19.278Z,23.15
2023-04-17T02:29:19.270Z,23.16
2023-04-17T02:30:19.246Z,23.15
2023-04-17T02:31:19.323Z,23.14
2023-04-17T02:32:19.314Z,23.15
2023-04-17T02:33:19.223Z,23.15
2023-04-17T02:34:19.201Z,23.15
2023-04-17T02:35:19.216Z,23.14
2023-04-17T02:36:19.178Z,23.14
2023-04-17T02:37:19.200Z,23.14
2023-04-17T02:38:19.152Z,23.14
2023-04-17T02:39:19.139Z,23.14
2023-04-17T02:40:19.134Z,23.14
2023-04-17T02:41:19.895Z,23.14
2023-04-17T02:42:19.097Z,23.14
2023-04-17T02:43:19.100Z,23.14
2023-04-17T02:44:19.084Z,23.14
2023-04-17T02:45:19.069Z,23.14
2023-04-17T02:46:19.069Z,23.14
2023-04-17T02:47:19.075Z,23.14
2023-04-17T02:48:19.040Z,23.13
2023-04-17T02:49:19.012Z,23.14
2023-04-17T02:50:18.991Z,23.14
2023-04-17T02:51:19.401Z,23.14
2023-04-17T02:52:18.975Z,23.13
2023-04-17T02:53:18.981Z,23.13
2023-04-17T02:54:18.941Z,23.14
2023-04-17T02:55:18.940Z,23.14
2023-04-17T02:56:18.904Z,23.14
2023-04-17T02:57:18.890Z,23.14
2023-04-17T02:58:18.903Z,23.15
2023-04-17T02:59:18.856Z,23.15
2023-04-17T03:00:18.847Z,23.15
2023-04-17T03:01:19.457Z,23.16
2023-04-17T03:02:19.001Z,23.15
2023-04-17T03:03:18.893Z,23.15
2023-04-17T03:04:18.812Z,23.16
2023-04-17T03:05:18.766Z,23.15
2023-04-17T03:06:19.416Z,23.16
2023-04-17T03:07:18.911Z,23.15
2023-04-17T03:08:18.790Z,23.16
2023-04-17T03:09:18.733Z,23.15
2023-04-17T03:10:18.700Z,23.15
2023-04-17T03:11:18.703Z,23.15
2023-04-17T03:12:18.664Z,23.15
2023-04-17T03:13:18.668Z,23.16
2023-04-17T03:14:18.630Z,23.15
2023-04-17T03:15:18.614Z,23.15
2023-04-17T03:16:19.421Z,23.16
2023-04-17T03:17:18.597Z,23.15
2023-04-17T03:18:18.578Z,23.16
2023-04-17T03:19:18.919Z,23.15
2023-04-17T03:20:18.551Z,23.16
2023-04-17T03:21:18.536Z,23.16
2023-04-17T03:22:18.528Z,23.15
2023-04-17T03:23:18.523Z,23.15
2023-04-17T03:24:18.507Z,23.15
2023-04-17T03:25:18.541Z,23.15
2023-04-17T03:26:18.502Z,23.15
2023-04-17T03:27:18.526Z,23.16
2023-04-17T03:28:18.491Z,23.15
2023-04-17T03:29:19.425Z,23.15
2023-04-17T03:30:18.463Z,23.15
2023-04-17T03:31:18.476Z,23.15
2023-04-17T03:32:18.506Z,23.15
2023-04-17T03:33:19.418Z,23.14
2023-04-17T03:34:18.434Z,23.14
2023-04-17T03:35:18.436Z,23.14
2023-04-17T03:36:18.415Z,23.13
2023-04-17T03:37:18.404Z,23.13
2023-04-17T03:38:18.399Z,23.11
2023-04-17T03:39:18.387Z,23.12
2023-04-17T03:40:18.374Z,23.12
2023-04-17T03:41:18.385Z,23.12
2023-04-17T03:42:18.353Z,23.12
2023-04-17T03:43:18.366Z,23.12
2023-04-17T03:44:18.922Z,23.12
2023-04-17T03:45:18.323Z,23.13
2023-04-17T03:46:18.348Z,23.13
2023-04-17T03:47:18.310Z,23.13
2023-04-17T03:48:18.472Z,23.13
2023-04-17T03:49:18.296Z,23.14
2023-04-17T03:50:18.249Z,23.14
2023-04-17T03:51:18.257Z,23.14
2023-04-17T03:52:18.233Z,23.14
2023-04-17T03:53:18.251Z,23.14
2023-04-17T03:54:20.925Z,23.13
2023-04-17T03:55:18.183Z,23.13
2023-04-17T03:56:18.157Z,23.13
2023-04-17T03:57:18.150Z,23.13
2023-04-17T03:58:18.098Z,23.13
2023-04-17T03:59:18.927Z,23.12
2023-04-17T04:00:20.917Z,23.12
2023-04-17T04:01:18.053Z,23.12
2023-04-17T04:02:18.070Z,23.11
2023-04-17T04:03:21.125Z,23.12
2023-04-17T04:04:21.092Z,23.11
2023-04-17T04:05:18.068Z,23.11
2023-04-17T04:06:18.439Z,23.11
2023-04-17T04:07:20.636Z,23.11
2023-04-17T04:08:17.908Z,23.11
2023-04-17T04:09:17.930Z,23.10
2023-04-17T04:10:17.858Z,23.11
2023-04-17T04:11:18.432Z,23.10
2023-04-17T04:12:17.819Z,23.10
2023-04-17T04:13:17.821Z,23.10
2023-04-17T04:14:17.940Z,23.10
2023-04-17T04:15:17.754Z,23.11
2023-04-17T04:16:17.803Z,23.11
2023-04-17T04:17:17.709Z,23.11
2023-04-17T04:18:17.683Z,23.10
2023-04-17T04:19:17.666Z,23.11
2023-04-17T04:20:17.669Z,23.10
2023-04-17T04:21:17.646Z,23.10
2023-04-17T04:22:17.632Z,23.11
2023-04-17T04:23:17.605Z,23.10
2023-04-17T04:24:17.593Z,23.10
2023-04-17T04:25:17.570Z,23.10
2023-04-17T04:26:17.556Z,23.11
2023-04-17T04:27:18.006Z,23.11
2023-04-17T04:28:17.506Z,23.10
2023-04-17T04:29:17.554Z,23.11
2023-04-17T04:30:17.484Z,23.11
2023-04-17T04:31:17.479Z,23.11
2023-04-17T04:32:17.437Z,23.09
2023-04-17T04:33:17.422Z,23.09
2023-04-17T04:34:17.395Z,23.09
2023-04-17T04:35:19.942Z,23.09
2023-04-17T04:36:17.355Z,23.08
2023-04-17T04:37:17.352Z,23.09
2023-04-17T04:38:17.371Z,23.09
2023-04-17T04:39:17.294Z,23.09
2023-04-17T04:40:17.272Z,23.09
2023-04-17T04:41:20.006Z,23.10
2023-04-17T04:42:17.477Z,23.09
2023-04-17T04:43:17.539Z,23.09
2023-04-17T04:44:17.180Z,23.09
2023-04-17T04:45:19.969Z,23.09
2023-04-17T04:46:17.168Z,23.09
2023-04-17T04:47:17.442Z,23.08
2023-04-17T04:48:17.104Z,23.08
2023-04-17T04:49:17.085Z,23.09
2023-04-17T04:50:17.059Z,23.10
2023-04-17T04:51:17.047Z,23.09
2023-04-17T04:52:17.448Z,23.09
2023-04-17T04:53:17.024Z,23.09
2023-04-17T04:54:16.976Z,23.09
2023-04-17T04:55:16.953Z,23.09
2023-04-17T04:56:16.924Z,23.09
2023-04-17T04:57:16.915Z,23.09
2023-04-17T04:58:16.884Z,23.09
2023-04-17T04:59:16.861Z,23.09
2023-04-17T05:00:16.834Z,23.10
2023-04-17T05:01:17.054Z,23.09
2023-04-17T05:02:16.869Z,23.09
2023-04-17T05:03:16.996Z,23.09
2023-04-17T05:04:16.791Z,23.09
2023-04-17T05:05:16.729Z,23.08
2023-04-17T05:06:17.451Z,23.09
2023-04-17T05:07:16.694Z,23.09
2023-04-17T05:08:19.673Z,23.09
2023-04-17T05:09:17.076Z,23.08
2023-04-17T05:10:16.633Z,23.08
2023-04-17T05:11:16.967Z,23.09
2023-04-17T05:12:16.592Z,23.08
2023-04-17T05:13:16.621Z,23.09
2023-04-17T05:14:16.547Z,23.09
2023-04-17T05:15:19.658Z,23.08
2023-04-17T05:16:16.567Z,23.09
2023-04-17T05:17:16.553Z,23.08
2023-04-17T05:18:16.960Z,23.09
2023-04-17T05:19:16.463Z,23.09
2023-04-17T05:20:16.470Z,23.09
2023-04-17T05:21:16.471Z,23.09
2023-04-17T05:22:16.396Z,23.09
2023-04-17T05:23:16.378Z,23.09
2023-04-17T05:24:16.352Z,23.09
2023-04-17T05:25:16.332Z,23.09
2023-04-17T05:26:16.345Z,23.09
2023-04-17T05:27:16.275Z,23.08
2023-04-17T05:28:17.187Z,23.09
2023-04-17T05:29:16.235Z,23.08
2023-04-17T05:30:16.244Z,23.09
2023-04-17T05:31:16.514Z,23.09
2023-04-17T05:32:16.182Z,23.09
2023-04-17T05:33:16.172Z,23.09
2023-04-17T05:34:16.128Z,23.09
2023-04-17T05:35:16.105Z,23.10
2023-04-17T05:36:16.095Z,23.09
2023-04-17T05:37:16.048Z,23.09
2023-04-17T05:38:16.031Z,23.09
2023-04-17T05:39:16.005Z,23.09
2023-04-17T05:40:16.969Z,23.10
2023-04-17T05:41:15.980Z,23.10
2023-04-17T05:42:15.964Z,23.11
2023-04-17T05:43:15.916Z,23.11
2023-04-17T05:44:15.899Z,23.11
2023-04-17T05:45:15.875Z,23.11
2023-04-17T05:46:16.510Z,23.11
2023-04-17T05:47:16.020Z,23.09
2023-04-17T05:48:15.973Z,23.10
2023-04-17T05:49:15.874Z,23.11
2023-04-17T05:50:15.820Z,23.09
2023-04-17T05:51:15.811Z,23.10
2023-04-17T05:52:15.771Z,23.10
2023-04-17T05:53:15.984Z,23.10
2023-04-17T05:54:15.838Z,23.10
2023-04-17T05:55:15.711Z,23.09
2023-04-17T05:56:15.672Z,23.09
2023-04-17T05:57:15.921Z,23.08
2023-04-17T05:58:23.638Z,23.09
2023-04-17T05:59:16.670Z,23.08
2023-04-17T06:00:15.883Z,23.09
2023-04-17T06:01:16.435Z,23.09
2023-04-17T06:02:15.824Z,23.10
2023-04-17T06:03:18.286Z,23.10
2023-04-17T06:04:22.917Z,23.10
2023-04-17T06:05:15.807Z,23.08
2023-04-17T06:06:15.753Z,23.09
2023-04-17T06:07:15.716Z,23.09
2023-04-17T06:08:15.704Z,23.10
2023-04-17T06:09:23.955Z,23.09
2023-04-17T06:10:15.724Z,23.08
2023-04-17T06:11:15.974Z,23.08
2023-04-17T06:12:15.617Z,23.08
2023-04-17T06:13:22.480Z,23.09
2023-04-17T06:14:16.007Z,23.09
2023-04-17T06:15:15.561Z,23.09
2023-04-17T06:16:15.621Z,23.09
2023-04-17T06:17:15.807Z,23.09
2023-04-17T06:18:16.101Z,23.10
2023-04-17T06:19:15.505Z,23.11
2023-04-17T06:20:15.632Z,23.11
2023-04-17T06:21:15.621Z,23.10
2023-04-17T06:22:15.436Z,23.11
2023-04-17T06:23:15.764Z,23.10
2023-04-17T06:24:15.397Z,23.09
2023-04-17T06:25:17.985Z,23.09
2023-04-17T06:26:15.373Z,23.09
2023-04-17T06:27:15.379Z,23.08
2023-04-17T06:28:15.349Z,23.08
2023-04-17T06:29:15.328Z,23.08
2023-04-17T06:30:15.310Z,23.08
2023-04-17T06:31:15.378Z,23.09
2023-04-17T06:32:15.287Z,23.08
2023-04-17T06:33:15.506Z,23.08
2023-04-17T06:34:15.377Z,23.09
2023-04-17T06:35:15.439Z,23.08
2023-04-17T06:36:15.503Z,23.08
2023-04-17T06:37:16.442Z,23.09
2023-04-17T06:38:15.568Z,23.08
2023-04-17T06:39:15.430Z,23.08
2023-04-17T06:40:15.398Z,23.09
2023-04-17T06:41:15.403Z,23.08
2023-04-17T06:42:15.393Z,23.08
2023-04-17T06:43:15.439Z,23.09
2023-04-17T06:44:15.380Z,23.09
2023-04-17T06:45:15.389Z,23.08
2023-04-17T06:46:15.416Z,23.08
2023-04-17T06:47:15.377Z,23.07
2023-04-17T06:48:15.364Z,23.08
2023-04-17T06:49:15.487Z,23.08
2023-04-17T06:50:15.332Z,23.09
2023-04-17T06:51:15.995Z,23.10
2023-04-17T06:52:15.353Z,23.09
2023-04-17T06:53:17.988Z,23.10
2023-04-17T06:54:17.992Z,23.10
2023-04-17T06:55:15.264Z,23.09
2023-04-17T06:56:15.496Z,23.09
2023-04-17T06:57:15.494Z,23.09
2023-04-17T06:58:15.214Z,23.09
2023-04-17T06:59:15.215Z,23.10
2023-04-17T07:00:15.378Z,23.12
2023-04-17T07:01:15.527Z,23.12
2023-04-17T07:02:15.271Z,23.12
2023-04-17T07:03:22.155Z,23.12
2023-04-17T07:04:15.596Z,23.10
2023-04-17T07:05:15.090Z,23.11
2023-04-17T07:06:15.048Z,23.11
2023-04-17T07:07:15.014Z,23.11
2023-04-17T07:08:15.028Z,23.12
2023-04-17T07:09:15.982Z,23.12
2023-04-17T07:10:14.976Z,23.12
2023-04-17T07:11:15.497Z,23.13
2023-04-17T07:12:14.899Z,23.13
2023-04-17T07:13:14.883Z,23.14
2023-04-17T07:14:14.861Z,23.15
2023-04-17T07:15:14.892Z,23.14
2023-04-17T07:16:15.015Z,23.14
2023-04-17T07:17:14.997Z,23.14
2023-04-17T07:18:15.495Z,23.15
2023-04-17T07:19:14.927Z,23.16
2023-04-17T07:20:14.747Z,23.16
2023-04-17T07:21:14.742Z,23.17
2023-04-17T07:22:14.724Z,23.17
2023-04-17T07:23:15.032Z,23.18
2023-04-17T07:24:14.805Z,23.19
2023-04-17T07:25:14.718Z,23.20
2023-04-17T07:26:21.508Z,23.21
2023-04-17T07:27:16.514Z,23.20
2023-04-17T07:28:14.731Z,23.21
2023-04-17T07:29:15.000Z,23.21
2023-04-17T07:30:15.504Z,23.21
2023-04-17T07:31:15.521Z,23.22
2023-04-17T07:32:15.001Z,23.23
2023-04-17T07:33:14.760Z,23.23
2023-04-17T07:34:15.000Z,23.23
2023-04-17T07:35:14.732Z,23.23
2023-04-17T07:36:14.731Z,23.23
2023-04-17T07:37:14.738Z,23.23
2023-04-17T07:38:14.749Z,23.23
2023-04-17T07:39:14.736Z,23.23
2023-04-17T07:40:14.316Z,23.22
2023-04-17T07:41:14.260Z,23.22
2023-04-17T07:42:15.006Z,23.22
2023-04-17T07:43:14.225Z,23.22
2023-04-17T07:44:14.733Z,23.22
2023-04-17T07:45:14.402Z,23.22
2023-04-17T07:46:14.175Z,23.22
2023-04-17T07:47:14.264Z,23.23
2023-04-17T07:48:14.121Z,23.24
2023-04-17T07:49:14.991Z,23.24
2023-04-17T07:50:14.048Z,23.23
2023-04-17T07:51:14.033Z,23.22
2023-04-17T07:52:14.420Z,23.24
2023-04-17T07:53:13.980Z,23.24
2023-04-17T07:54:14.011Z,23.23
2023-04-17T07:55:13.943Z,23.23
2023-04-17T07:56:14.058Z,23.24
2023-04-17T07:57:14.083Z,23.23
2023-04-17T07:58:13.893Z,23.24
2023-04-17T07:59:14.153Z,23.24
2023-04-17T08:00:13.856Z,23.24
2023-04-17T08:01:13.858Z,23.24
2023-04-17T08:02:14.136Z,23.25
2023-04-17T08:03:13.940Z,23.24
2023-04-17T08:04:16.857Z,23.23
2023-04-17T08:05:14.006Z,23.23
2023-04-17T08:06:13.788Z,23.23
2023-04-17T08:07:15.550Z,23.23
2023-04-17T08:08:16.516Z,23.23
2023-04-17T08:09:17.238Z,23.23
2023-04-17T08:10:16.514Z,23.22
2023-04-17T08:11:13.783Z,23.22
2023-04-17T08:12:13.774Z,23.22
2023-04-17T08:13:13.774Z,23.22
2023-04-17T08:14:14.022Z,23.22
2023-04-17T08:15:17.531Z,23.22
2023-04-17T08:16:16.544Z,23.22
2023-04-17T08:17:16.525Z,23.21
2023-04-17T08:18:13.779Z,23.21
2023-04-17T08:19:14.204Z,23.22
2023-04-17T08:20:13.765Z,23.22
2023-04-17T08:21:20.023Z,23.23
2023-04-17T08:22:14.214Z,23.22
2023-04-17T08:23:13.788Z,23.22
2023-04-17T08:24:13.808Z,23.24
2023-04-17T08:25:13.774Z,23.23
2023-04-17T08:26:13.786Z,23.23
2023-04-17T08:27:13.783Z,23.23
2023-04-17T08:28:13.390Z,23.23
2023-04-17T08:29:14.123Z,23.23
2023-04-17T08:30:16.156Z,23.23
2023-04-17T08:31:13.378Z,23.22
2023-04-17T08:32:15.229Z,23.23
2023-04-17T08:33:13.309Z,23.23
2023-04-17T08:34:16.059Z,23.24
2023-04-17T08:35:13.778Z,23.24
2023-04-17T08:36:13.177Z,23.25
2023-04-17T08:37:13.197Z,23.26
2023-04-17T08:38:13.180Z,23.26
2023-04-17T08:39:13.240Z,23.27
2023-04-17T08:40:13.100Z,23.26
2023-04-17T08:41:14.024Z,23.27
2023-04-17T08:42:18.397Z,23.27
2023-04-17T08:43:13.021Z,23.27
2023-04-17T08:44:13.026Z,23.26
2023-04-17T08:45:12.995Z,23.27
2023-04-17T08:46:13.013Z,23.26
2023-04-17T08:47:13.100Z,23.26
2023-04-17T08:48:12.896Z,23.26
2023-04-17T08:49:12.956Z,23.25
2023-04-17T08:50:13.775Z,23.25
2023-04-17T08:51:12.847Z,23.25
2023-04-17T08:52:12.816Z,23.26
2023-04-17T08:53:12.793Z,23.26
2023-04-17T08:54:13.032Z,23.27
2023-04-17T08:55:12.785Z,23.27
2023-04-17T08:56:12.731Z,23.27
2023-04-17T08:57:12.720Z,23.27
2023-04-17T08:58:15.583Z,23.27
2023-04-17T08:59:14.050Z,23.26
2023-04-17T09:00:13.065Z,23.26
2023-04-17T09:01:12.739Z,23.26
2023-04-17T09:02:12.893Z,23.27
2023-04-17T09:03:12.957Z,23.27
2023-04-17T09:04:12.931Z,23.27
2023-04-17T09:05:13.040Z,23.27
2023-04-17T09:06:12.618Z,23.28
2023-04-17T09:07:13.099Z,23.27
2023-04-17T09:08:19.779Z,23.27
2023-04-17T09:09:12.893Z,23.25
2023-04-17T09:10:13.037Z,23.27
2023-04-17T09:11:12.598Z,23.26
2023-04-17T09:12:12.516Z,23.26
2023-04-17T09:13:13.493Z,23.28
2023-04-17T09:14:12.468Z,23.28
2023-04-17T09:15:12.564Z,23.27
2023-04-17T09:16:12.550Z,23.27
2023-04-17T09:17:12.402Z,23.28
2023-04-17T09:18:12.459Z,23.28
2023-04-17T09:19:12.686Z,23.27
2023-04-17T09:20:13.046Z,23.26
2023-04-17T09:21:12.303Z,23.27
2023-04-17T09:22:12.291Z,23.26
2023-04-17T09:23:12.276Z,23.27
2023-04-17T09:24:12.259Z,23.26
2023-04-17T09:25:12.230Z,23.26
2023-04-17T09:26:13.050Z,23.27
2023-04-17T09:27:13.195Z,23.27
2023-04-17T09:28:12.554Z,23.27
2023-04-17T09:29:12.731Z,23.27
2023-04-17T09:30:12.126Z,23.28
2023-04-17T09:31:12.668Z,23.29
2023-04-17T09:32:12.102Z,23.29
2023-04-17T09:33:12.065Z,23.29
2023-04-17T09:34:12.069Z,23.29
2023-04-17T09:35:12.073Z,23.30
2023-04-17T09:36:11.983Z,23.30
2023-04-17T09:37:11.958Z,23.30
2023-04-17T09:38:11.959Z,23.31
2023-04-17T09:39:12.080Z,23.31
2023-04-17T09:40:12.081Z,23.31
2023-04-17T09:41:11.898Z,23.31
2023-04-17T09:42:11.830Z,23.31
2023-04-17T09:43:11.831Z,23.31
2023-04-17T09:44:12.139Z,23.31
2023-04-17T09:45:12.056Z,23.32
2023-04-17T09:46:11.878Z,23.31
2023-04-17T09:47:11.817Z,23.30
2023-04-17T09:48:11.919Z,23.30
2023-04-17T09:49:11.809Z,23.31
2023-04-17T09:50:12.057Z,23.31
2023-04-17T09:51:11.820Z,23.30
2023-04-17T09:52:11.816Z,23.30
2023-04-17T09:53:12.448Z,23.30
2023-04-17T09:54:12.214Z,23.30
2023-04-17T09:55:12.061Z,23.31
2023-04-17T09:56:11.819Z,23.31
2023-04-17T09:57:12.057Z,23.31
2023-04-17T09:58:12.082Z,23.31
2023-04-17T09:59:11.814Z,23.32
2023-04-17T10:00:11.816Z,23.32
2023-04-17T10:01:11.458Z,23.31
2023-04-17T10:02:12.146Z,23.31
2023-04-17T10:03:11.575Z,23.30
2023-04-17T10:04:12.297Z,23.30
2023-04-17T10:05:11.302Z,23.31
2023-04-17T10:06:11.295Z,23.31
2023-04-17T10:07:11.830Z,23.31
2023-04-17T10:08:11.253Z,23.30
2023-04-17T10:09:11.237Z,23.30
2023-04-17T10:10:11.206Z,23.30
2023-04-17T10:11:11.177Z,23.30
2023-04-17T10:12:11.878Z,23.31
2023-04-17T10:13:11.134Z,23.30
2023-04-17T10:14:11.691Z,23.30
2023-04-17T10:15:11.094Z,23.31
2023-04-17T10:16:11.186Z,23.31
2023-04-17T10:17:11.077Z,23.30
2023-04-17T10:18:11.106Z,23.30
2023-04-17T10:19:11.010Z,23.30
2023-04-17T10:20:11.015Z,23.30
2023-04-17T10:21:11.073Z,23.30
2023-04-17T10:22:10.951Z,23.29
2023-04-17T10:23:11.082Z,23.31
2023-04-17T10:24:11.246Z,23.29
2023-04-17T10:25:10.894Z,23.28
2023-04-17T10:26:11.075Z,23.28
2023-04-17T10:27:10.947Z,23.29
2023-04-17T10:28:10.827Z,23.28
2023-04-17T10:29:10.808Z,23.29
2023-04-17T10:30:10.792Z,23.29
2023-04-17T10:31:11.093Z,23.28
2023-04-17T10:32:10.963Z,23.29
2023-04-17T10:33:10.785Z,23.30
2023-04-17T10:34:11.405Z,23.30
2023-04-17T10:35:10.724Z,23.30
2023-04-17T10:36:10.850Z,23.30
2023-04-17T10:37:10.691Z,23.30
2023-04-17T10:38:11.072Z,23.29
2023-04-17T10:39:10.871Z,23.29
2023-04-17T10:40:10.640Z,23.30
2023-04-17T10:41:10.651Z,23.30
2023-04-17T10:42:10.640Z,23.30
2023-04-17T10:43:10.618Z,23.29
2023-04-17T10:44:10.625Z,23.29
2023-04-17T10:45:13.583Z,23.29
2023-04-17T10:46:11.334Z,23.29
2023-04-17T10:48:09.714Z,23.30
2023-04-17T10:49:10.998Z,23.30
2023-04-17T10:50:10.509Z,23.30
2023-04-17T10:51:10.582Z,23.29
2023-04-17T10:52:10.481Z,23.30
2023-04-17T10:53:10.581Z,23.30
2023-04-17T10:54:10.472Z,23.29
2023-04-17T10:55:10.397Z,23.30
2023-04-17T10:56:13.215Z,23.31
2023-04-17T10:57:10.349Z,23.30
2023-04-17T10:58:10.582Z,23.31
2023-04-17T10:59:10.655Z,23.32
2023-04-17T11:00:10.293Z,23.31
2023-04-17T11:01:10.342Z,23.31
2023-04-17T11:02:10.663Z,23.32
2023-04-17T11:03:10.653Z,23.31
2023-04-17T11:04:10.228Z,23.31
2023-04-17T11:05:10.581Z,23.31
2023-04-17T11:06:10.584Z,23.32
2023-04-17T11:07:10.161Z,23.31
2023-04-17T11:08:10.167Z,23.31
2023-04-17T11:09:10.127Z,23.33
2023-04-17T11:10:10.107Z,23.31
2023-04-17T11:11:10.083Z,23.32
2023-04-17T11:12:10.063Z,23.32
2023-04-17T11:13:10.085Z,23.31
2023-04-17T11:14:11.610Z,23.31
2023-04-17T11:15:10.178Z,23.31
2023-04-17T11:16:09.979Z,23.31
2023-04-17T11:17:10.004Z,23.31
2023-04-17T11:18:09.970Z,23.32
2023-04-17T11:19:10.045Z,23.32
2023-04-17T11:20:10.087Z,23.32
2023-04-17T11:21:09.892Z,23.33
2023-04-17T11:22:09.861Z,23.33
2023-04-17T11:23:09.859Z,23.33
2023-04-17T11:24:09.855Z,23.32
2023-04-17T11:25:10.104Z,23.33
2023-04-17T11:26:09.785Z,23.33
2023-04-17T11:27:09.785Z,23.34
2023-04-17T11:28:10.108Z,23.34
2023-04-17T11:29:10.130Z,23.34
2023-04-17T11:30:10.592Z,23.35
2023-04-17T11:31:09.691Z,23.34
2023-04-17T11:32:09.624Z,23.35
2023-04-17T11:33:09.669Z,23.35
2023-04-17T11:34:09.619Z,23.34
2023-04-17T11:35:09.609Z,23.34
2023-04-17T11:36:09.545Z,23.34
2023-04-17T11:37:09.528Z,23.34
2023-04-17T11:38:09.501Z,23.34
2023-04-17T11:39:09.479Z,23.34
2023-04-17T11:40:09.488Z,23.33
2023-04-17T11:41:10.090Z,23.33
2023-04-17T11:42:09.441Z,23.33
2023-04-17T11:43:09.613Z,23.32
2023-04-17T11:44:09.521Z,23.32
2023-04-17T11:45:09.541Z,23.32
2023-04-17T11:46:09.639Z,23.32
2023-04-17T11:47:09.623Z,23.32
2023-04-17T11:48:10.607Z,23.32
2023-04-17T11:49:10.288Z,23.32
2023-04-17T11:50:10.128Z,23.32
2023-04-17T11:51:09.681Z,23.32
2023-04-17T11:52:09.676Z,23.33
2023-04-17T11:53:09.677Z,23.33
2023-04-17T11:54:09.751Z,23.33
2023-04-17T11:55:10.098Z,23.34
2023-04-17T11:56:09.741Z,23.33
2023-04-17T11:57:09.721Z,23.34
2023-04-17T11:58:09.818Z,23.33
2023-04-17T11:59:09.992Z,23.33
2023-04-17T12:00:10.104Z,23.33
2023-04-17T12:01:10.127Z,23.33
2023-04-17T12:02:10.219Z,23.33
2023-04-17T12:03:10.120Z,23.33
2023-04-17T12:04:10.150Z,23.32
2023-04-17T12:05:10.335Z,23.32
2023-04-17T12:06:10.162Z,23.32
2023-04-17T12:07:10.019Z,23.33
2023-04-17T12:08:10.046Z,23.32
2023-04-17T12:09:10.270Z,23.32
2023-04-17T12:10:10.136Z,23.32
2023-04-17T12:11:10.138Z,23.32
2023-04-17T12:12:11.135Z,23.32
2023-04-17T12:13:10.155Z,23.32
2023-04-17T12:14:10.303Z,23.32
2023-04-17T12:15:10.167Z,23.33
2023-04-17T12:16:10.238Z,23.33
2023-04-17T12:17:10.624Z,23.32
2023-04-17T12:18:10.152Z,23.32
2023-04-17T12:19:10.151Z,23.32
2023-04-17T12:20:10.234Z,23.32
2023-04-17T12:21:10.172Z,23.32
2023-04-17T12:22:10.646Z,23.32
2023-04-17T12:23:10.178Z,23.33
2023-04-17T12:24:10.335Z,23.33
2023-04-17T12:25:10.179Z,23.33
2023-04-17T12:26:10.175Z,23.34
2023-04-17T12:27:10.613Z,23.33
2023-04-17T12:28:10.245Z,23.34
2023-04-17T12:29:10.232Z,23.34
2023-04-17T12:30:10.613Z,23.34
2023-04-17T12:31:10.326Z,23.33
2023-04-17T12:32:10.905Z,23.34
2023-04-17T12:33:10.296Z,23.32
2023-04-17T12:34:10.453Z,23.33
2023-04-17T12:35:10.260Z,23.33
2023-04-17T12:36:10.301Z,23.33
2023-04-17T12:37:10.617Z,23.33
2023-04-17T12:38:10.653Z,23.33
2023-04-17T12:39:10.317Z,23.33
2023-04-17T12:40:10.635Z,23.32
2023-04-17T12:41:10.317Z,23.33
2023-04-17T12:42:10.318Z,23.33
2023-04-17T12:43:10.317Z,23.33
2023-04-17T12:44:10.352Z,23.33
2023-04-17T12:45:10.311Z,23.34
2023-04-17T12:46:10.337Z,23.34
2023-04-17T12:47:10.258Z,23.35
2023-04-17T12:48:10.251Z,23.34
2023-04-17T12:49:10.402Z,23.34
2023-04-17T12:50:10.209Z,23.34
2023-04-17T12:51:10.205Z,23.34
2023-04-17T12:52:10.218Z,23.34
2023-04-17T12:53:13.199Z,23.35